sensor_id;sensor_type;location;lat;lon;timestamp;pressure;altitude;pressure_sealevel;temperature;humidity
11672;BME280;5892;43.412;24.612;2024-01-15T00:05:50;99581.91;;;-0.07;55.21
11672;BME280;5892;43.412;24.612;2024-01-15T00:08:15;99592.06;;;-0.06;56.23
11672;BME280;5892;43.412;24.612;2024-01-15T00:10:41;99575.09;;;-0.07;55.80
11672;BME280;5892;43.412;24.612;2024-01-15T00:13:07;99579.16;;;-0.03;55.83
11672;BME280;5892;43.412;24.612;2024-01-15T00:15:32;99584.81;;;0.04;55.32
11672;BME280;5892;43.412;24.612;2024-01-15T00:17:58;99586.47;;;0.05;54.59
11672;BME280;5892;43.412;24.612;2024-01-15T00:20:24;99577.22;;;0.03;55.28
11672;BME280;5892;43.412;24.612;2024-01-15T00:22:49;99586.63;;;0.02;56.29
11672;BME280;5892;43.412;24.612;2024-01-15T00:25:15;99575.34;;;0.06;55.09
11672;BME280;5892;43.412;24.612;2024-01-15T00:27:40;99571.91;;;0.07;55.77
11672;BME280;5892;43.412;24.612;2024-01-15T00:30:06;99576.03;;;0.10;55.51
11672;BME280;5892;43.412;24.612;2024-01-15T00:32:32;99578.53;;;0.11;55.48
11672;BME280;5892;43.412;24.612;2024-01-15T00:34:57;99570.25;;;0.06;54.88
11672;BME280;5892;43.412;24.612;2024-01-15T00:37:23;99572.06;;;0.04;56.08
11672;BME280;5892;43.412;24.612;2024-01-15T00:39:49;99553.41;;;0.02;56.22
11672;BME280;5892;43.412;24.612;2024-01-15T00:42:15;99560.91;;;0.05;55.00
11672;BME280;5892;43.412;24.612;2024-01-15T00:44:42;99562.78;;;0.02;55.15
11672;BME280;5892;43.412;24.612;2024-01-15T00:47:07;99564.44;;;0.03;55.87
11672;BME280;5892;43.412;24.612;2024-01-15T00:49:33;99558.78;;;-0.04;55.54
11672;BME280;5892;43.412;24.612;2024-01-15T00:51:58;99551.94;;;-0.04;56.16
11672;BME280;5892;43.412;24.612;2024-01-15T00:54:24;99550.44;;;-0.08;56.71
11672;BME280;5892;43.412;24.612;2024-01-15T00:56:49;99555.22;;;0.00;57.32
11672;BME280;5892;43.412;24.612;2024-01-15T00:59:15;99540.81;;;-0.22;56.92
11672;BME280;5892;43.412;24.612;2024-01-15T01:01:41;99533.44;;;-0.28;57.67
11672;BME280;5892;43.412;24.612;2024-01-15T01:04:11;99531.72;;;-0.27;57.76
11672;BME280;5892;43.412;24.612;2024-01-15T01:06:36;99528.06;;;-0.22;58.05
11672;BME280;5892;43.412;24.612;2024-01-15T01:09:03;99535.03;;;-0.06;57.30
11672;BME280;5892;43.412;24.612;2024-01-15T01:11:29;99526.75;;;-0.11;56.72
11672;BME280;5892;43.412;24.612;2024-01-15T01:13:54;99527.34;;;-0.25;59.16
11672;BME280;5892;43.412;24.612;2024-01-15T01:16:22;99520.94;;;-0.34;58.80
11672;BME280;5892;43.412;24.612;2024-01-15T01:18:47;99531.09;;;-0.32;58.17
11672;BME280;5892;43.412;24.612;2024-01-15T01:21:13;99532.88;;;-0.34;58.71
11672;BME280;5892;43.412;24.612;2024-01-15T01:23:38;99527.72;;;-0.33;58.53
11672;BME280;5892;43.412;24.612;2024-01-15T01:26:04;99533.22;;;-0.23;57.59
11672;BME280;5892;43.412;24.612;2024-01-15T01:28:29;99534.59;;;-0.16;58.16
11672;BME280;5892;43.412;24.612;2024-01-15T01:30:54;99525.94;;;-0.12;57.03
11672;BME280;5892;43.412;24.612;2024-01-15T01:33:21;99530.41;;;0.02;57.31
11672;BME280;5892;43.412;24.612;2024-01-15T01:35:47;99518.25;;;0.07;57.23
11672;BME280;5892;43.412;24.612;2024-01-15T01:38:12;99519.13;;;0.06;57.66
11672;BME280;5892;43.412;24.612;2024-01-15T01:40:38;99517.34;;;0.08;56.52
11672;BME280;5892;43.412;24.612;2024-01-15T01:43:05;99519.94;;;0.07;57.41
11672;BME280;5892;43.412;24.612;2024-01-15T01:45:30;99513.06;;;0.09;58.03
11672;BME280;5892;43.412;24.612;2024-01-15T01:47:56;99515.50;;;0.29;57.30
11672;BME280;5892;43.412;24.612;2024-01-15T01:50:21;99514.97;;;0.23;57.57
11672;BME280;5892;43.412;24.612;2024-01-15T01:52:48;99506.84;;;0.14;57.65
11672;BME280;5892;43.412;24.612;2024-01-15T01:55:14;99515.53;;;0.10;57.17
11672;BME280;5892;43.412;24.612;2024-01-15T01:57:40;99525.38;;;0.01;58.53
11672;BME280;5892;43.412;24.612;2024-01-15T02:00:06;99519.50;;;-0.02;57.69
11672;BME280;5892;43.412;24.612;2024-01-15T02:02:33;99507.88;;;-0.09;59.13
11672;BME280;5892;43.412;24.612;2024-01-15T02:04:59;99505.69;;;-0.16;58.72
11672;BME280;5892;43.412;24.612;2024-01-15T02:07:24;99509.00;;;-0.14;59.53
11672;BME280;5892;43.412;24.612;2024-01-15T02:09:50;99501.75;;;-0.24;59.21
11672;BME280;5892;43.412;24.612;2024-01-15T02:12:16;99501.75;;;-0.24;59.58
11672;BME280;5892;43.412;24.612;2024-01-15T02:14:42;99495.41;;;-0.15;59.29
11672;BME280;5892;43.412;24.612;2024-01-15T02:17:07;99496.84;;;-0.09;59.12
11672;BME280;5892;43.412;24.612;2024-01-15T02:19:33;99495.44;;;0.03;59.00
11672;BME280;5892;43.412;24.612;2024-01-15T02:21:58;99500.63;;;0.01;59.04
11672;BME280;5892;43.412;24.612;2024-01-15T02:24:24;99497.31;;;-0.01;58.48
11672;BME280;5892;43.412;24.612;2024-01-15T02:26:50;99496.56;;;-0.03;58.71
11672;BME280;5892;43.412;24.612;2024-01-15T02:29:16;99465.09;;;-0.23;59.01
11672;BME280;5892;43.412;24.612;2024-01-15T02:32:15;99488.66;;;0.02;59.20
11672;BME280;5892;43.412;24.612;2024-01-15T02:34:41;99483.66;;;0.00;59.22
11672;BME280;5892;43.412;24.612;2024-01-15T02:37:06;99469.81;;;0.04;58.62
11672;BME280;5892;43.412;24.612;2024-01-15T02:39:32;99471.94;;;0.13;57.89
11672;BME280;5892;43.412;24.612;2024-01-15T02:41:57;99467.59;;;0.15;57.42
11672;BME280;5892;43.412;24.612;2024-01-15T02:44:23;99466.44;;;0.04;57.88
11672;BME280;5892;43.412;24.612;2024-01-15T02:46:49;99473.88;;;0.08;58.84
11672;BME280;5892;43.412;24.612;2024-01-15T02:49:14;99462.53;;;0.14;59.50
11672;BME280;5892;43.412;24.612;2024-01-15T02:51:41;99461.59;;;0.16;59.40
11672;BME280;5892;43.412;24.612;2024-01-15T02:54:07;99460.97;;;0.11;59.81
11672;BME280;5892;43.412;24.612;2024-01-15T02:56:32;99457.34;;;0.15;58.55
11672;BME280;5892;43.412;24.612;2024-01-15T02:58:59;99456.06;;;0.07;59.04
11672;BME280;5892;43.412;24.612;2024-01-15T03:01:25;99456.38;;;0.01;59.69
11672;BME280;5892;43.412;24.612;2024-01-15T03:03:51;99449.53;;;0.01;60.43
11672;BME280;5892;43.412;24.612;2024-01-15T03:06:18;99450.13;;;0.06;59.02
11672;BME280;5892;43.412;24.612;2024-01-15T03:08:43;99442.31;;;0.09;59.60
11672;BME280;5892;43.412;24.612;2024-01-15T03:11:09;99442.09;;;0.14;59.19
11672;BME280;5892;43.412;24.612;2024-01-15T03:13:36;99440.06;;;0.21;59.01
11672;BME280;5892;43.412;24.612;2024-01-15T03:16:03;99438.13;;;0.26;58.67
11672;BME280;5892;43.412;24.612;2024-01-15T03:18:29;99428.03;;;0.23;59.72
11672;BME280;5892;43.412;24.612;2024-01-15T03:20:54;99427.09;;;0.25;59.69
11672;BME280;5892;43.412;24.612;2024-01-15T03:23:20;99420.22;;;0.26;58.92
11672;BME280;5892;43.412;24.612;2024-01-15T03:25:46;99424.47;;;0.27;58.70
11672;BME280;5892;43.412;24.612;2024-01-15T03:28:12;99408.44;;;0.23;59.80
11672;BME280;5892;43.412;24.612;2024-01-15T03:30:37;99420.97;;;0.28;60.08
11672;BME280;5892;43.412;24.612;2024-01-15T03:33:04;99407.38;;;0.27;59.47
11672;BME280;5892;43.412;24.612;2024-01-15T03:35:30;99410.06;;;0.24;60.41
11672;BME280;5892;43.412;24.612;2024-01-15T03:37:57;99413.63;;;0.22;59.95
11672;BME280;5892;43.412;24.612;2024-01-15T03:40:24;99416.19;;;0.22;59.63
11672;BME280;5892;43.412;24.612;2024-01-15T03:42:50;99409.34;;;0.22;60.96
11672;BME280;5892;43.412;24.612;2024-01-15T03:45:15;99411.69;;;0.27;60.53
11672;BME280;5892;43.412;24.612;2024-01-15T03:47:42;99399.97;;;0.40;60.10
11672;BME280;5892;43.412;24.612;2024-01-15T03:50:08;99403.63;;;0.52;60.40
11672;BME280;5892;43.412;24.612;2024-01-15T03:52:35;99403.53;;;0.53;60.67
11672;BME280;5892;43.412;24.612;2024-01-15T03:55:00;99401.72;;;0.55;59.48
11672;BME280;5892;43.412;24.612;2024-01-15T03:57:28;99401.06;;;0.52;60.60
11672;BME280;5892;43.412;24.612;2024-01-15T03:59:54;99398.69;;;0.49;60.26
11672;BME280;5892;43.412;24.612;2024-01-15T04:02:19;99396.94;;;0.49;61.18
11672;BME280;5892;43.412;24.612;2024-01-15T04:04:46;99394.44;;;0.48;60.38
11672;BME280;5892;43.412;24.612;2024-01-15T04:07:11;99395.06;;;0.53;60.20
11672;BME280;5892;43.412;24.612;2024-01-15T04:09:40;99395.94;;;0.52;61.39
11672;BME280;5892;43.412;24.612;2024-01-15T04:12:05;99397.28;;;0.59;60.36
11672;BME280;5892;43.412;24.612;2024-01-15T04:14:32;99394.22;;;0.70;60.69
11672;BME280;5892;43.412;24.612;2024-01-15T04:16:59;99387.50;;;0.67;60.20
11672;BME280;5892;43.412;24.612;2024-01-15T04:19:24;99399.31;;;0.70;59.87
11672;BME280;5892;43.412;24.612;2024-01-15T04:21:49;99391.53;;;0.71;60.88
11672;BME280;5892;43.412;24.612;2024-01-15T04:24:15;99388.75;;;0.76;60.15
11672;BME280;5892;43.412;24.612;2024-01-15T04:26:43;99386.94;;;0.78;60.43
11672;BME280;5892;43.412;24.612;2024-01-15T04:29:08;99390.81;;;1.03;60.29
11672;BME280;5892;43.412;24.612;2024-01-15T04:31:34;99388.72;;;0.93;59.93
11672;BME280;5892;43.412;24.612;2024-01-15T04:33:59;99388.72;;;0.93;60.17
11672;BME280;5892;43.412;24.612;2024-01-15T04:36:25;99376.41;;;0.84;61.34
11672;BME280;5892;43.412;24.612;2024-01-15T04:38:50;99383.88;;;0.89;60.34
11672;BME280;5892;43.412;24.612;2024-01-15T04:41:16;99374.88;;;0.98;60.94
11672;BME280;5892;43.412;24.612;2024-01-15T04:43:43;99369.28;;;1.07;60.81
11672;BME280;5892;43.412;24.612;2024-01-15T04:46:10;99369.28;;;1.07;60.62
11672;BME280;5892;43.412;24.612;2024-01-15T04:48:36;99365.63;;;1.11;59.96
11672;BME280;5892;43.412;24.612;2024-01-15T04:51:04;99363.00;;;1.12;60.25
11672;BME280;5892;43.412;24.612;2024-01-15T04:53:30;99374.25;;;1.10;61.10
11672;BME280;5892;43.412;24.612;2024-01-15T04:55:55;99375.13;;;1.09;60.22
11672;BME280;5892;43.412;24.612;2024-01-15T04:58:21;99363.34;;;1.06;60.19
11672;BME280;5892;43.412;24.612;2024-01-15T05:00:50;99369.28;;;1.07;60.22
11672;BME280;5892;43.412;24.612;2024-01-15T05:03:15;99366.28;;;0.99;60.69
11672;BME280;5892;43.412;24.612;2024-01-15T05:05:41;99366.38;;;0.97;61.88
11672;BME280;5892;43.412;24.612;2024-01-15T05:08:07;99359.59;;;0.96;61.33
11672;BME280;5892;43.412;24.612;2024-01-15T05:10:33;99354.66;;;0.93;60.20
11672;BME280;5892;43.412;24.612;2024-01-15T05:12:59;99359.19;;;0.88;60.53
11672;BME280;5892;43.412;24.612;2024-01-15T05:15:27;99351.91;;;0.80;60.81
11672;BME280;5892;43.412;24.612;2024-01-15T05:17:53;99356.44;;;0.75;62.29
11672;BME280;5892;43.412;24.612;2024-01-15T05:20:18;99341.22;;;0.72;62.78
11672;BME280;5892;43.412;24.612;2024-01-15T05:22:44;99339.50;;;0.72;61.33
11672;BME280;5892;43.412;24.612;2024-01-15T05:25:11;99338.97;;;0.66;62.41
11672;BME280;5892;43.412;24.612;2024-01-15T05:27:37;99350.94;;;0.65;63.04
11672;BME280;5892;43.412;24.612;2024-01-15T05:30:02;99334.84;;;0.63;62.58
11672;BME280;5892;43.412;24.612;2024-01-15T05:32:30;99334.19;;;0.60;62.17
11672;BME280;5892;43.412;24.612;2024-01-15T05:34:57;99336.25;;;0.69;61.73
11672;BME280;5892;43.412;24.612;2024-01-15T05:37:22;99329.34;;;0.71;62.12
11672;BME280;5892;43.412;24.612;2024-01-15T05:39:47;99329.34;;;0.71;62.50
11672;BME280;5892;43.412;24.612;2024-01-15T05:42:13;99324.81;;;0.76;62.75
11672;BME280;5892;43.412;24.612;2024-01-15T05:44:40;99328.19;;;0.77;61.85
11672;BME280;5892;43.412;24.612;2024-01-15T05:47:05;99325.41;;;0.81;63.08
11672;BME280;5892;43.412;24.612;2024-01-15T05:49:31;99318.38;;;0.85;62.57
11672;BME280;5892;43.412;24.612;2024-01-15T05:51:58;99321.69;;;0.87;62.62
11672;BME280;5892;43.412;24.612;2024-01-15T05:54:26;99323.28;;;1.05;61.06
11672;BME280;5892;43.412;24.612;2024-01-15T05:56:52;99326.59;;;1.07;61.95
11672;BME280;5892;43.412;24.612;2024-01-15T05:59:18;99316.41;;;1.06;61.27
11672;BME280;5892;43.412;24.612;2024-01-15T06:01:43;99313.78;;;1.07;60.65
11672;BME280;5892;43.412;24.612;2024-01-15T06:04:09;99300.41;;;1.18;61.43
11672;BME280;5892;43.412;24.612;2024-01-15T06:06:35;99295.94;;;1.22;60.41
11672;BME280;5892;43.412;24.612;2024-01-15T06:09:01;99297.84;;;1.18;61.43
11672;BME280;5892;43.412;24.612;2024-01-15T06:11:32;99304.38;;;1.24;60.87
11672;BME280;5892;43.412;24.612;2024-01-15T06:13:58;99306.44;;;1.17;60.42
11672;BME280;5892;43.412;24.612;2024-01-15T06:16:25;99311.81;;;1.12;61.87
11672;BME280;5892;43.412;24.612;2024-01-15T06:18:51;99313.19;;;1.18;61.67
11672;BME280;5892;43.412;24.612;2024-01-15T06:21:32;99311.63;;;1.31;61.05
11672;BME280;5892;43.412;24.612;2024-01-15T06:23:58;99315.50;;;1.39;59.86
11672;BME280;5892;43.412;24.612;2024-01-15T06:26:24;99310.56;;;1.36;60.63
11672;BME280;5892;43.412;24.612;2024-01-15T06:28:50;99316.53;;;1.36;61.07
11672;BME280;5892;43.412;24.612;2024-01-15T06:31:16;99305.94;;;1.42;60.57
11672;BME280;5892;43.412;24.612;2024-01-15T06:33:41;99298.81;;;1.47;60.08
11672;BME280;5892;43.412;24.612;2024-01-15T06:36:07;99293.63;;;1.49;61.52
11672;BME280;5892;43.412;24.612;2024-01-15T06:38:32;99300.41;;;1.50;61.61
11672;BME280;5892;43.412;24.612;2024-01-15T06:40:58;99291.13;;;1.47;60.82
11672;BME280;5892;43.412;24.612;2024-01-15T06:43:24;99299.75;;;1.46;61.51
11672;BME280;5892;43.412;24.612;2024-01-15T06:45:49;99297.06;;;1.48;61.49
11672;BME280;5892;43.412;24.612;2024-01-15T06:48:15;99295.50;;;1.61;61.16
11672;BME280;5892;43.412;24.612;2024-01-15T06:50:42;99307.13;;;1.67;59.97
11672;BME280;5892;43.412;24.612;2024-01-15T06:53:08;99299.91;;;1.74;60.46
11672;BME280;5892;43.412;24.612;2024-01-15T06:55:33;99301.28;;;1.95;59.74
11672;BME280;5892;43.412;24.612;2024-01-15T06:57:59;99303.59;;;2.14;59.34
11672;BME280;5892;43.412;24.612;2024-01-15T07:00:25;99303.16;;;2.22;60.14
11672;BME280;5892;43.412;24.612;2024-01-15T07:02:50;99311.16;;;2.32;60.02
11672;BME280;5892;43.412;24.612;2024-01-15T07:05:17;99298.03;;;2.22;59.33
11672;BME280;5892;43.412;24.612;2024-01-15T07:07:42;99309.13;;;2.37;59.85
11672;BME280;5892;43.412;24.612;2024-01-15T07:10:08;99309.78;;;2.69;58.29
11672;BME280;5892;43.412;24.612;2024-01-15T07:12:35;99309.78;;;2.98;57.06
11672;BME280;5892;43.412;24.612;2024-01-15T07:15:01;99302.03;;;3.39;56.32
11672;BME280;5892;43.412;24.612;2024-01-15T07:17:27;99290.31;;;3.63;56.06
11672;BME280;5892;43.412;24.612;2024-01-15T07:19:52;99285.00;;;3.78;55.64
11672;BME280;5892;43.412;24.612;2024-01-15T07:22:18;99287.63;;;4.04;54.10
11672;BME280;5892;43.412;24.612;2024-01-15T07:24:45;99294.00;;;4.24;54.06
11672;BME280;5892;43.412;24.612;2024-01-15T07:27:11;99286.81;;;4.29;53.85
11672;BME280;5892;43.412;24.612;2024-01-15T07:29:38;99290.00;;;4.46;52.76
11672;BME280;5892;43.412;24.612;2024-01-15T07:32:04;99283.59;;;4.64;52.87
11672;BME280;5892;43.412;24.612;2024-01-15T07:34:30;99285.44;;;4.88;51.17
11672;BME280;5892;43.412;24.612;2024-01-15T07:36:57;99277.34;;;5.05;51.75
11672;BME280;5892;43.412;24.612;2024-01-15T07:39:24;99279.97;;;5.41;50.83
11672;BME280;5892;43.412;24.612;2024-01-15T07:41:51;99282.66;;;5.63;50.25
11672;BME280;5892;43.412;24.612;2024-01-15T07:44:17;99272.16;;;5.78;49.65
11672;BME280;5892;43.412;24.612;2024-01-15T07:46:47;99268.41;;;6.06;49.01
11672;BME280;5892;43.412;24.612;2024-01-15T07:49:14;99266.31;;;6.22;48.54
11672;BME280;5892;43.412;24.612;2024-01-15T07:51:40;99260.09;;;6.25;47.72
11672;BME280;5892;43.412;24.612;2024-01-15T07:54:09;99261.03;;;6.24;47.74
11672;BME280;5892;43.412;24.612;2024-01-15T07:56:56;99264.06;;;6.18;47.82
11672;BME280;5892;43.412;24.612;2024-01-15T07:59:23;99264.19;;;6.16;48.97
11672;BME280;5892;43.412;24.612;2024-01-15T08:01:48;99257.25;;;6.06;49.14
11672;BME280;5892;43.412;24.612;2024-01-15T08:04:15;99259.94;;;6.04;49.32
11672;BME280;5892;43.412;24.612;2024-01-15T08:06:41;99253.38;;;6.11;48.67
11672;BME280;5892;43.412;24.612;2024-01-15T08:09:07;99245.78;;;6.21;48.38
11672;BME280;5892;43.412;24.612;2024-01-15T08:11:35;99243.44;;;6.29;48.74
11672;BME280;5892;43.412;24.612;2024-01-15T08:14:00;99241.94;;;6.38;48.83
11672;BME280;5892;43.412;24.612;2024-01-15T08:16:26;99246.03;;;6.52;48.70
11672;BME280;5892;43.412;24.612;2024-01-15T08:18:53;99245.31;;;6.38;48.89
11672;BME280;5892;43.412;24.612;2024-01-15T08:21:19;99251.88;;;6.65;47.79
11672;BME280;5892;43.412;24.612;2024-01-15T08:23:44;99255.03;;;6.80;47.39
11672;BME280;5892;43.412;24.612;2024-01-15T08:26:10;99249.88;;;6.80;46.91
11672;BME280;5892;43.412;24.612;2024-01-15T08:28:36;99248.56;;;6.97;46.43
11672;BME280;5892;43.412;24.612;2024-01-15T08:31:02;99245.81;;;7.10;46.17
11672;BME280;5892;43.412;24.612;2024-01-15T08:33:28;99250.53;;;7.16;46.07
11672;BME280;5892;43.412;24.612;2024-01-15T08:35:53;99250.34;;;7.29;45.81
11672;BME280;5892;43.412;24.612;2024-01-15T08:38:20;99247.09;;;7.27;45.83
11672;BME280;5892;43.412;24.612;2024-01-15T08:40:45;99234.16;;;7.27;45.04
11672;BME280;5892;43.412;24.612;2024-01-15T08:43:12;99218.72;;;7.36;45.27
11672;BME280;5892;43.412;24.612;2024-01-15T08:45:38;99224.41;;;7.51;45.56
11672;BME280;5892;43.412;24.612;2024-01-15T08:48:03;99231.06;;;7.65;45.06
11672;BME280;5892;43.412;24.612;2024-01-15T08:50:29;99229.16;;;7.67;45.24
11672;BME280;5892;43.412;24.612;2024-01-15T08:52:56;99225.34;;;7.71;44.99
11672;BME280;5892;43.412;24.612;2024-01-15T08:55:22;99216.91;;;7.69;44.88
11672;BME280;5892;43.412;24.612;2024-01-15T08:57:50;99224.75;;;7.79;44.66
11672;BME280;5892;43.412;24.612;2024-01-15T09:00:18;99214.41;;;7.79;45.28
11672;BME280;5892;43.412;24.612;2024-01-15T09:02:44;99213.06;;;7.64;46.98
11672;BME280;5892;43.412;24.612;2024-01-15T09:05:10;99211.31;;;6.99;49.89
11672;BME280;5892;43.412;24.612;2024-01-15T09:07:36;99199.75;;;6.71;50.81
11672;BME280;5892;43.412;24.612;2024-01-15T09:10:04;99201.53;;;6.59;50.39
11672;BME280;5892;43.412;24.612;2024-01-15T09:12:31;99190.94;;;6.74;50.14
11672;BME280;5892;43.412;24.612;2024-01-15T09:14:56;99181.50;;;6.95;48.28
11672;BME280;5892;43.412;24.612;2024-01-15T09:17:23;99184.47;;;7.23;48.80
11672;BME280;5892;43.412;24.612;2024-01-15T09:19:54;99168.84;;;7.46;47.93
11672;BME280;5892;43.412;24.612;2024-01-15T09:22:20;99161.47;;;7.62;48.63
11672;BME280;5892;43.412;24.612;2024-01-15T09:24:46;99154.84;;;7.48;49.27
11672;BME280;5892;43.412;24.612;2024-01-15T09:27:11;99142.69;;;7.39;48.31
11672;BME280;5892;43.412;24.612;2024-01-15T09:29:37;99151.28;;;7.07;48.90
11672;BME280;5892;43.412;24.612;2024-01-15T09:32:05;99140.97;;;7.28;48.33
11672;BME280;5892;43.412;24.612;2024-01-15T09:34:33;99134.28;;;7.47;48.03
11672;BME280;5892;43.412;24.612;2024-01-15T09:36:58;99128.66;;;7.63;48.10
11672;BME280;5892;43.412;24.612;2024-01-15T09:39:26;99122.25;;;7.88;46.88
11672;BME280;5892;43.412;24.612;2024-01-15T09:41:55;99110.75;;;8.11;46.56
11672;BME280;5892;43.412;24.612;2024-01-15T09:44:21;99100.47;;;8.31;45.88
11672;BME280;5892;43.412;24.612;2024-01-15T09:46:48;99098.81;;;8.30;45.38
11672;BME280;5892;43.412;24.612;2024-01-15T09:49:17;99089.56;;;8.37;46.03
11672;BME280;5892;43.412;24.612;2024-01-15T09:51:43;99082.47;;;8.39;45.54
11672;BME280;5892;43.412;24.612;2024-01-15T09:54:09;99081.06;;;8.66;44.59
11672;BME280;5892;43.412;24.612;2024-01-15T09:56:35;99065.34;;;9.06;43.25
11672;BME280;5892;43.412;24.612;2024-01-15T09:59:01;99063.78;;;9.53;43.50
11672;BME280;5892;43.412;24.612;2024-01-15T10:01:32;99057.09;;;9.78;43.05
11672;BME280;5892;43.412;24.612;2024-01-15T10:04:02;99042.66;;;9.75;42.31
11672;BME280;5892;43.412;24.612;2024-01-15T10:06:27;99043.47;;;10.04;41.90
11672;BME280;5892;43.412;24.612;2024-01-15T10:08:53;99043.53;;;10.40;41.18
11672;BME280;5892;43.412;24.612;2024-01-15T10:11:21;99034.50;;;10.44;40.19
11672;BME280;5892;43.412;24.612;2024-01-15T10:13:49;99032.56;;;10.64;39.44
11672;BME280;5892;43.412;24.612;2024-01-15T10:16:19;99014.47;;;10.54;38.35
11672;BME280;5892;43.412;24.612;2024-01-15T10:18:46;99020.28;;;10.74;39.54
11672;BME280;5892;43.412;24.612;2024-01-15T10:21:15;99015.75;;;10.94;38.46
11672;BME280;5892;43.412;24.612;2024-01-15T10:23:41;99014.09;;;10.93;37.87
11672;BME280;5892;43.412;24.612;2024-01-15T10:26:08;99008.69;;;11.12;36.75
11672;BME280;5892;43.412;24.612;2024-01-15T10:28:33;99004.22;;;10.97;37.41
11672;BME280;5892;43.412;24.612;2024-01-15T10:30:59;98998.66;;;10.91;37.25
11672;BME280;5892;43.412;24.612;2024-01-15T10:33:27;98996.78;;;11.02;37.06
11672;BME280;5892;43.412;24.612;2024-01-15T10:35:56;99007.63;;;10.97;36.28
11672;BME280;5892;43.412;24.612;2024-01-15T10:38:23;98999.59;;;11.08;36.38
11672;BME280;5892;43.412;24.612;2024-01-15T10:40:56;99011.50;;;10.93;35.76
11672;BME280;5892;43.412;24.612;2024-01-15T10:43:23;99003.25;;;10.98;36.45
11672;BME280;5892;43.412;24.612;2024-01-15T10:45:51;99000.44;;;10.91;36.31
11672;BME280;5892;43.412;24.612;2024-01-15T10:48:17;99005.88;;;10.80;36.81
11672;BME280;5892;43.412;24.612;2024-01-15T10:50:45;98996.53;;;10.87;36.67
11672;BME280;5892;43.412;24.612;2024-01-15T10:53:13;98996.63;;;10.59;36.38
11672;BME280;5892;43.412;24.612;2024-01-15T10:55:40;98986.09;;;10.61;37.62
11672;BME280;5892;43.412;24.612;2024-01-15T10:58:08;98982.38;;;10.63;37.51
11672;BME280;5892;43.412;24.612;2024-01-15T11:00:38;98974.44;;;10.65;37.02
11672;BME280;5892;43.412;24.612;2024-01-15T11:03:07;98975.09;;;10.67;36.61
11672;BME280;5892;43.412;24.612;2024-01-15T11:05:36;98976.66;;;10.60;37.05
11672;BME280;5892;43.412;24.612;2024-01-15T11:08:02;98975.31;;;10.73;36.38
11672;BME280;5892;43.412;24.612;2024-01-15T11:11:06;98967.22;;;10.77;41.61
11672;BME280;5892;43.412;24.612;2024-01-15T11:16:10;98961.19;;;10.22;42.44
11672;BME280;5892;43.412;24.612;2024-01-15T11:21:25;98966.38;;;9.58;45.14
11672;BME280;5892;43.412;24.612;2024-01-15T11:23:59;98967.69;;;9.44;46.08
11672;BME280;5892;43.412;24.612;2024-01-15T11:26:48;98975.53;;;8.78;46.69
11672;BME280;5892;43.412;24.612;2024-01-15T11:32:04;98955.91;;;8.56;48.13
11672;BME280;5892;43.412;24.612;2024-01-15T11:34:55;98947.47;;;8.54;48.13
11672;BME280;5892;43.412;24.612;2024-01-15T11:37:27;98945.50;;;8.65;44.58
11672;BME280;5892;43.412;24.612;2024-01-15T11:40:04;98949.22;;;8.63;46.00
11672;BME280;5892;43.412;24.612;2024-01-15T11:42:30;98949.63;;;8.68;44.55
11672;BME280;5892;43.412;24.612;2024-01-15T11:44:55;98949.03;;;8.94;43.43
11672;BME280;5892;43.412;24.612;2024-01-15T11:50:49;98919.06;;;9.19;44.07
11672;BME280;5892;43.412;24.612;2024-01-15T11:53:25;98908.72;;;9.37;45.06
11672;BME280;5892;43.412;24.612;2024-01-15T11:55:52;98914.41;;;9.50;45.33
11672;BME280;5892;43.412;24.612;2024-01-15T11:58:21;98904.38;;;9.37;45.44
11672;BME280;5892;43.412;24.612;2024-01-15T12:00:49;98899.13;;;9.47;45.22
11672;BME280;5892;43.412;24.612;2024-01-15T12:03:16;98897.16;;;9.59;43.69
11672;BME280;5892;43.412;24.612;2024-01-15T12:05:42;98887.66;;;9.68;43.94
11672;BME280;5892;43.412;24.612;2024-01-15T12:08:07;98894.00;;;9.83;42.51
11672;BME280;5892;43.412;24.612;2024-01-15T12:10:37;98903.19;;;9.95;41.48
11672;BME280;5892;43.412;24.612;2024-01-15T12:13:17;98903.41;;;10.02;42.00
11672;BME280;5892;43.412;24.612;2024-01-15T12:15:46;98902.28;;;10.05;42.33
11672;BME280;5892;43.412;24.612;2024-01-15T12:18:14;98908.84;;;10.09;41.18
11672;BME280;5892;43.412;24.612;2024-01-15T12:20:46;98890.88;;;9.79;41.57
11672;BME280;5892;43.412;24.612;2024-01-15T12:23:12;98893.41;;;10.07;41.81
11672;BME280;5892;43.412;24.612;2024-01-15T12:25:39;98886.50;;;10.16;42.54
11672;BME280;5892;43.412;24.612;2024-01-15T12:28:04;98875.13;;;10.17;40.66
11672;BME280;5892;43.412;24.612;2024-01-15T12:30:34;98884.41;;;10.19;40.67
11672;BME280;5892;43.412;24.612;2024-01-15T12:33:04;98886.56;;;10.24;41.14
11672;BME280;5892;43.412;24.612;2024-01-15T12:35:30;98891.53;;;10.17;41.45
11672;BME280;5892;43.412;24.612;2024-01-15T12:38:02;98897.25;;;10.21;42.45
11672;BME280;5892;43.412;24.612;2024-01-15T12:40:28;98902.66;;;10.28;41.58
11672;BME280;5892;43.412;24.612;2024-01-15T12:42:53;98895.78;;;10.36;41.41
11672;BME280;5892;43.412;24.612;2024-01-15T12:45:20;98895.03;;;10.44;40.92
11672;BME280;5892;43.412;24.612;2024-01-15T12:47:48;98888.75;;;10.55;40.69
11672;BME280;5892;43.412;24.612;2024-01-15T12:50:15;98884.47;;;10.46;40.98
11672;BME280;5892;43.412;24.612;2024-01-15T12:52:41;98889.63;;;10.64;40.62
11672;BME280;5892;43.412;24.612;2024-01-15T12:55:08;98879.59;;;10.69;40.63
11672;BME280;5892;43.412;24.612;2024-01-15T12:57:35;98880.72;;;10.40;40.93
11672;BME280;5892;43.412;24.612;2024-01-15T13:33:22;98849.13;;;10.09;42.21
11672;BME280;5892;43.412;24.612;2024-01-15T13:52:36;98826.66;;;9.81;43.34
11672;BME280;5892;43.412;24.612;2024-01-15T13:55:02;98846.69;;;9.71;44.63
11672;BME280;5892;43.412;24.612;2024-01-15T13:57:28;98844.53;;;9.85;43.86
11672;BME280;5892;43.412;24.612;2024-01-15T14:13:25;98843.00;;;9.74;41.93
11672;BME280;5892;43.412;24.612;2024-01-15T14:15:51;98826.22;;;9.68;42.32
11672;BME280;5892;43.412;24.612;2024-01-15T14:28:07;98814.84;;;9.33;43.18
11672;BME280;5892;43.412;24.612;2024-01-15T14:50:59;98791.59;;;8.96;46.23
11672;BME280;5892;43.412;24.612;2024-01-15T14:53:24;98808.78;;;8.97;47.00
11672;BME280;5892;43.412;24.612;2024-01-15T14:55:51;98795.09;;;8.77;47.58